createdAt,value
2022-12-27T00:01:44.180Z,11.49
2022-12-27T00:04:12.445Z,11.45
2022-12-27T00:06:40.663Z,11.40
2022-12-27T00:09:09.277Z,11.30
2022-12-27T00:11:38.232Z,11.16
2022-12-27T00:14:07.532Z,11.12
2022-12-27T00:16:35.819Z,11.16
2022-12-27T00:19:04.999Z,11.16
2022-12-27T00:21:35.935Z,11.21
2022-12-27T00:24:04.847Z,11.25
2022-12-27T00:26:34.631Z,11.24
2022-12-27T00:29:03.589Z,11.23
2022-12-27T00:31:32.660Z,11.27
2022-12-27T00:34:03.072Z,11.34
2022-12-27T00:36:31.827Z,11.38
2022-12-27T00:39:00.596Z,11.40
2022-12-27T00:41:29.061Z,11.39
2022-12-27T00:43:57.359Z,11.38
2022-12-27T00:46:25.559Z,11.36
2022-12-27T00:48:54.942Z,11.36
2022-12-27T00:51:24.408Z,11.36
2022-12-27T00:53:53.592Z,11.38
2022-12-27T00:56:26.742Z,11.42
2022-12-27T00:58:55.281Z,11.48
2022-12-27T01:01:25.461Z,11.54
2022-12-27T01:03:54.315Z,11.57
2022-12-27T01:06:25.089Z,11.56
2022-12-27T01:08:53.317Z,11.53
2022-12-27T01:11:21.792Z,11.53
2022-12-27T01:13:50.035Z,11.54
2022-12-27T01:16:21.103Z,11.54
2022-12-27T01:18:49.722Z,11.55
2022-12-27T01:21:19.734Z,11.54
2022-12-27T01:23:48.538Z,11.53
2022-12-27T01:26:19.941Z,11.50
2022-12-27T01:28:48.749Z,11.46
2022-12-27T01:31:18.686Z,11.42
2022-12-27T01:33:47.864Z,11.37
2022-12-27T01:36:18.829Z,11.33
2022-12-27T01:38:48.056Z,11.26
2022-12-27T01:41:37.543Z,11.21
2022-12-27T01:44:48.602Z,11.10
2022-12-27T01:47:23.196Z,10.99
2022-12-27T01:49:59.985Z,10.90
2022-12-27T01:52:35.031Z,10.82
2022-12-27T01:55:11.568Z,10.82
2022-12-27T01:57:40.299Z,10.82
2022-12-27T02:00:11.268Z,10.81
2022-12-27T02:02:40.422Z,10.85
2022-12-27T02:05:12.716Z,10.81
2022-12-27T02:07:54.087Z,10.82
2022-12-27T02:10:22.457Z,10.84
2022-12-27T02:12:51.956Z,10.87
2022-12-27T02:15:20.200Z,10.89
2022-12-27T02:17:48.497Z,10.92
2022-12-27T02:20:22.309Z,10.96
2022-12-27T02:23:43.139Z,10.98
2022-12-27T02:26:56.286Z,10.98
2022-12-27T02:29:52.397Z,10.98
2022-12-27T02:32:27.533Z,10.98
2022-12-27T02:35:11.663Z,10.95
2022-12-27T02:37:44.978Z,10.93
2022-12-27T02:40:33.967Z,10.93
2022-12-27T02:43:22.119Z,10.90
2022-12-27T02:46:21.398Z,10.87
2022-12-27T02:49:13.526Z,10.84
2022-12-27T02:52:07.747Z,10.82
2022-12-27T02:54:55.731Z,10.77
2022-12-27T02:57:37.121Z,10.78
2022-12-27T03:00:29.708Z,10.75
2022-12-27T03:03:29.439Z,10.75
2022-12-27T03:06:42.565Z,10.72
2022-12-27T03:09:57.042Z,10.66
2022-12-27T03:12:53.660Z,10.59
2022-12-27T03:15:52.360Z,10.53
2022-12-27T03:18:30.467Z,10.43
2022-12-27T03:21:20.476Z,10.45
2022-12-27T03:24:09.173Z,10.46
2022-12-27T03:26:40.846Z,10.39
2022-12-27T03:29:30.002Z,10.37
2022-12-27T03:32:21.937Z,10.37
2022-12-27T03:34:53.014Z,10.35
2022-12-27T03:37:45.019Z,10.40
2022-12-27T03:40:23.039Z,10.48
2022-12-27T03:43:13.045Z,10.49
2022-12-27T03:46:17.856Z,10.50
2022-12-27T03:48:56.793Z,10.52
2022-12-27T03:51:27.701Z,10.45
2022-12-27T03:54:03.734Z,10.39
2022-12-27T03:56:32.249Z,10.33
2022-12-27T03:59:02.140Z,10.31
2022-12-27T04:01:30.416Z,10.31
2022-12-27T04:03:58.643Z,10.27
2022-12-27T04:06:26.847Z,10.22
2022-12-27T04:09:13.445Z,10.19
2022-12-27T04:11:59.745Z,10.10
2022-12-27T04:14:46.361Z,10.02
2022-12-27T04:17:32.791Z,9.98
2022-12-27T04:20:19.351Z,9.93
2022-12-27T04:23:06.149Z,9.89
2022-12-27T04:25:52.646Z,9.92
2022-12-27T04:28:38.969Z,9.93
2022-12-27T04:31:25.499Z,9.86
2022-12-27T04:34:12.273Z,9.87
2022-12-27T04:36:40.465Z,9.84
2022-12-27T04:39:08.706Z,9.82
2022-12-27T04:41:55.150Z,9.72
2022-12-27T04:44:41.454Z,9.67
2022-12-27T04:47:29.282Z,9.61
2022-12-27T04:50:15.802Z,9.58
2022-12-27T04:53:02.211Z,9.50
2022-12-27T04:55:30.816Z,9.43
2022-12-27T04:57:59.443Z,9.39
2022-12-27T05:00:48.890Z,9.34
2022-12-27T05:03:20.937Z,9.28
2022-12-27T05:05:51.156Z,9.13
2022-12-27T05:08:39.078Z,8.93
2022-12-27T05:11:26.569Z,8.65
2022-12-27T05:14:00.483Z,8.36
2022-12-27T05:16:30.191Z,8.21
2022-12-27T05:18:58.825Z,8.12
2022-12-27T05:21:27.247Z,8.00
2022-12-27T05:24:14.286Z,7.93
2022-12-27T05:26:42.697Z,7.80
2022-12-27T05:29:10.940Z,7.69
2022-12-27T05:31:39.394Z,7.59
2022-12-27T05:34:07.602Z,7.56
2022-12-27T05:36:35.793Z,7.62
2022-12-27T05:39:04.263Z,7.58
2022-12-27T05:41:32.478Z,7.62
2022-12-27T05:44:04.973Z,7.69
2022-12-27T05:46:35.347Z,7.77
2022-12-27T05:49:03.634Z,8.28
2022-12-27T05:51:31.883Z,9.19
2022-12-27T05:54:00.104Z,9.99
2022-12-27T05:56:28.904Z,9.97
2022-12-27T05:58:57.127Z,9.87
2022-12-27T06:01:25.762Z,10.22
2022-12-27T06:03:54.004Z,10.33
2022-12-27T06:06:22.189Z,10.54
2022-12-27T06:08:50.344Z,10.76
2022-12-27T06:11:19.857Z,10.76
2022-12-27T06:13:52.212Z,10.86
2022-12-27T06:16:21.886Z,10.83
2022-12-27T06:18:50.219Z,11.02
2022-12-27T06:21:21.010Z,10.78
2022-12-27T06:23:49.689Z,9.53
2022-12-27T06:26:20.983Z,8.29
2022-12-27T06:28:50.647Z,7.79
2022-12-27T06:31:19.793Z,8.45
2022-12-27T06:33:48.711Z,9.47
2022-12-27T06:36:18.527Z,10.15
2022-12-27T06:38:47.617Z,10.78
2022-12-27T06:41:17.717Z,11.48
2022-12-27T06:43:46.745Z,11.24
2022-12-27T06:46:17.882Z,9.85
2022-12-27T06:48:47.047Z,8.60
2022-12-27T06:51:17.111Z,7.93
2022-12-27T06:53:47.495Z,8.25
2022-12-27T06:56:17.303Z,8.44
2022-12-27T06:58:45.719Z,8.34
2022-12-27T07:01:20.829Z,8.16
2022-12-27T07:03:50.297Z,8.00
2022-12-27T07:06:19.456Z,7.85
2022-12-27T07:08:48.543Z,7.74
2022-12-27T07:11:17.769Z,7.63
2022-12-27T07:13:47.569Z,7.51
2022-12-27T07:16:20.034Z,7.42
2022-12-27T07:18:50.125Z,7.37
2022-12-27T07:21:20.910Z,7.25
2022-12-27T07:23:49.861Z,7.13
2022-12-27T07:26:20.333Z,7.11
2022-12-27T07:28:49.049Z,7.07
2022-12-27T07:31:20.292Z,7.04
2022-12-27T07:33:48.567Z,7.03
2022-12-27T07:36:19.838Z,7.09
2022-12-27T07:38:48.264Z,7.04
2022-12-27T07:41:17.099Z,7.09
2022-12-27T07:43:45.449Z,7.16
2022-12-27T07:46:15.759Z,7.28
2022-12-27T07:48:44.819Z,7.36
2022-12-27T07:51:14.057Z,7.42
2022-12-27T07:53:42.817Z,7.48
2022-12-27T07:56:17.679Z,7.52
2022-12-27T07:58:50.042Z,7.58
2022-12-27T08:01:20.548Z,7.57
2022-12-27T08:03:49.085Z,7.55
2022-12-27T08:06:22.865Z,7.51
2022-12-27T08:08:52.498Z,7.49
2022-12-27T08:11:20.960Z,7.49
2022-12-27T08:13:49.255Z,7.51
2022-12-27T08:16:19.781Z,7.52
2022-12-27T08:18:48.188Z,7.57
2022-12-27T08:21:17.113Z,7.49
2022-12-27T08:23:45.512Z,7.46
2022-12-27T08:26:14.169Z,7.46
2022-12-27T08:28:42.601Z,7.39
2022-12-27T08:31:12.613Z,7.42
2022-12-27T08:33:41.308Z,7.37
2022-12-27T08:36:36.811Z,7.31
2022-12-27T08:39:00.113Z,7.31
2022-12-27T08:41:28.341Z,7.36
2022-12-27T08:43:56.530Z,7.36
2022-12-27T08:46:25.073Z,7.42
2022-12-27T08:48:53.381Z,7.47
2022-12-27T08:51:32.799Z,7.55
2022-12-27T08:54:07.164Z,7.59
2022-12-27T08:56:35.334Z,7.53
2022-12-27T08:59:03.755Z,7.37
2022-12-27T09:01:32.209Z,7.41
2022-12-27T09:04:00.548Z,7.42
2022-12-27T09:06:28.819Z,7.47
2022-12-27T09:08:57.411Z,7.41
2022-12-27T09:11:27.543Z,7.36
2022-12-27T09:13:58.381Z,7.45
2022-12-27T09:16:28.395Z,7.50
2022-12-27T09:18:58.922Z,7.46
2022-12-27T09:21:29.192Z,7.48
2022-12-27T09:23:57.779Z,7.54
2022-12-27T09:26:29.877Z,7.62
2022-12-27T09:28:59.331Z,7.64
2022-12-27T09:31:28.321Z,7.71
2022-12-27T09:33:57.755Z,7.77
2022-12-27T09:36:28.308Z,7.75
2022-12-27T09:38:58.105Z,7.78
2022-12-27T09:42:44.470Z,7.91
2022-12-27T09:44:36.077Z,8.03
2022-12-27T09:47:10.734Z,8.09
2022-12-27T09:49:41.337Z,8.07
2022-12-27T09:52:16.438Z,7.98
2022-12-27T09:55:05.164Z,7.96
2022-12-27T09:57:37.677Z,7.99
2022-12-27T10:00:14.350Z,7.97
2022-12-27T10:02:44.040Z,8.01
2022-12-27T10:05:20.755Z,8.04
2022-12-27T10:08:01.086Z,8.10
2022-12-27T10:10:40.735Z,8.10
2022-12-27T10:13:25.604Z,8.15
2022-12-27T10:16:05.060Z,8.17
2022-12-27T10:18:43.042Z,8.21
2022-12-27T10:21:19.326Z,8.19
2022-12-27T10:23:52.849Z,8.23
2022-12-27T10:26:21.698Z,8.31
2022-12-27T10:28:57.379Z,8.36
2022-12-27T10:31:26.520Z,8.33
2022-12-27T10:33:54.983Z,8.28
2022-12-27T10:36:25.584Z,8.27
2022-12-27T10:38:54.511Z,8.32
2022-12-27T10:41:38.238Z,8.39
2022-12-27T10:44:10.244Z,8.39
2022-12-27T10:46:40.967Z,8.38
2022-12-27T10:49:24.022Z,8.34
2022-12-27T10:51:53.930Z,8.31
2022-12-27T10:54:25.068Z,8.29
2022-12-27T10:56:53.819Z,8.42
2022-12-27T10:59:23.779Z,8.67
2022-12-27T11:02:16.235Z,8.78
2022-12-27T11:04:58.490Z,8.75
2022-12-27T11:07:31.214Z,8.83
2022-12-27T11:10:13.880Z,8.91
2022-12-27T11:12:55.296Z,8.91
2022-12-27T11:15:23.956Z,8.92
2022-12-27T11:17:55.094Z,8.89
2022-12-27T11:20:26.626Z,8.85
2022-12-27T11:22:59.189Z,8.73
2022-12-27T11:25:28.944Z,8.70
2022-12-27T11:28:01.048Z,8.70
2022-12-27T11:30:32.770Z,8.71
2022-12-27T11:33:05.833Z,8.70
2022-12-27T11:35:46.005Z,8.68
2022-12-27T11:38:23.967Z,8.60
2022-12-27T11:41:01.969Z,8.62
2022-12-27T11:43:35.444Z,8.67
2022-12-27T11:46:12.987Z,8.65
2022-12-27T11:48:44.790Z,8.59
2022-12-27T11:51:29.624Z,8.49
2022-12-27T11:54:30.531Z,8.46
2022-12-27T11:57:12.119Z,8.50
2022-12-27T11:59:51.864Z,8.58
2022-12-27T12:02:30.394Z,8.67
2022-12-27T12:05:30.363Z,8.64
2022-12-27T12:08:15.394Z,8.61
2022-12-27T12:10:52.498Z,8.65
2022-12-27T12:13:47.066Z,8.68
2022-12-27T12:16:38.831Z,8.74
2022-12-27T12:19:26.185Z,8.75
2022-12-27T12:22:05.143Z,8.49
2022-12-27T12:24:44.980Z,8.25
2022-12-27T12:27:31.361Z,8.40
2022-12-27T12:30:27.944Z,8.36
2022-12-27T12:33:14.005Z,8.05
2022-12-27T12:35:56.677Z,8.13
2022-12-27T12:38:33.576Z,8.26
2022-12-27T12:41:21.259Z,8.32
2022-12-27T12:44:07.648Z,8.35
2022-12-27T12:46:43.995Z,8.33
2022-12-27T12:49:32.328Z,7.82
2022-12-27T12:52:25.113Z,7.22
2022-12-27T12:55:17.946Z,6.79
2022-12-27T12:57:56.811Z,6.73
2022-12-27T13:00:35.707Z,7.43
2022-12-27T13:03:45.175Z,7.81
2022-12-27T13:06:30.678Z,8.08
2022-12-27T13:09:06.867Z,8.23
2022-12-27T13:11:53.239Z,8.16
2022-12-27T13:14:49.664Z,7.63
2022-12-27T13:17:28.005Z,8.40
2022-12-27T13:20:09.642Z,8.66
2022-12-27T13:22:50.458Z,9.30
2022-12-27T13:25:34.092Z,8.57
2022-12-27T13:28:26.083Z,7.70
2022-12-27T13:31:02.723Z,7.09
2022-12-27T13:33:44.284Z,7.18
2022-12-27T13:36:23.780Z,7.57
2022-12-27T13:39:07.991Z,8.80
2022-12-27T13:41:51.089Z,9.64
2022-12-27T13:44:33.323Z,8.72
2022-12-27T13:47:21.553Z,7.79
2022-12-27T13:50:08.938Z,7.14
2022-12-27T13:52:59.733Z,8.10
2022-12-27T13:55:37.408Z,9.81
2022-12-27T13:58:38.544Z,9.73
2022-12-27T14:01:25.439Z,8.46
2022-12-27T14:04:15.015Z,7.56
2022-12-27T14:07:21.441Z,6.92
2022-12-27T14:10:03.029Z,6.37
2022-12-27T14:12:55.625Z,6.06
2022-12-27T14:15:30.075Z,6.99
2022-12-27T14:18:14.235Z,8.51
2022-12-27T14:20:57.472Z,8.93
2022-12-27T14:23:39.813Z,8.03
2022-12-27T14:26:42.003Z,7.14
2022-12-27T14:30:01.855Z,6.43
2022-12-27T14:33:04.511Z,6.44
2022-12-27T14:36:04.873Z,7.64
2022-12-27T14:39:09.359Z,7.65
2022-12-27T14:42:10.734Z,6.83
2022-12-27T14:45:17.400Z,6.14
2022-12-27T14:48:03.651Z,5.99
2022-12-27T14:51:50.405Z,6.32
2022-12-27T14:54:41.539Z,6.62
2022-12-27T14:57:21.491Z,6.63
2022-12-27T14:59:57.840Z,6.68
2022-12-27T15:02:44.317Z,6.64
2022-12-27T15:05:25.521Z,6.62
2022-12-27T15:08:25.481Z,6.61
2022-12-27T15:11:04.179Z,6.63
2022-12-27T15:13:45.267Z,6.64
2022-12-27T15:16:21.161Z,6.67
2022-12-27T15:19:04.420Z,6.63
2022-12-27T15:21:57.018Z,6.56
2022-12-27T15:24:36.563Z,6.55
2022-12-27T15:27:17.879Z,6.55
2022-12-27T15:30:03.664Z,6.53
2022-12-27T15:32:41.534Z,6.48
2022-12-27T15:35:32.782Z,6.47
2022-12-27T15:38:09.066Z,6.41
2022-12-27T15:40:47.510Z,6.38
2022-12-27T15:43:30.469Z,6.38
2022-12-27T15:46:14.102Z,6.29
2022-12-27T15:49:04.212Z,6.23
2022-12-27T15:51:40.891Z,6.22
2022-12-27T15:54:37.821Z,6.15
2022-12-27T15:57:32.764Z,6.09
2022-12-27T16:00:15.902Z,6.05
2022-12-27T16:02:56.194Z,6.05
2022-12-27T16:05:44.684Z,6.05
2022-12-27T16:08:26.716Z,6.05
2022-12-27T16:10:57.340Z,6.04
2022-12-27T16:13:41.447Z,6.04
2022-12-27T16:16:55.293Z,6.06
2022-12-27T16:19:50.149Z,6.10
2022-12-27T16:22:35.631Z,6.10
2022-12-27T16:25:32.220Z,6.12
2022-12-27T16:28:05.616Z,6.11
2022-12-27T16:30:52.287Z,6.14
2022-12-27T16:33:27.932Z,6.14
2022-12-27T16:36:12.100Z,6.14
2022-12-27T16:38:47.048Z,6.23
2022-12-27T16:41:27.775Z,6.29
2022-12-27T16:44:13.901Z,6.38
2022-12-27T16:47:09.623Z,6.45
2022-12-27T16:50:06.363Z,6.58
2022-12-27T16:52:59.520Z,6.57
2022-12-27T16:55:47.923Z,6.56
2022-12-27T16:58:34.656Z,6.59
2022-12-27T17:01:04.331Z,6.63
2022-12-27T17:03:49.798Z,6.68
2022-12-27T17:06:52.654Z,6.71
2022-12-27T17:09:40.975Z,6.72
2022-12-27T17:12:20.946Z,6.75
2022-12-27T17:15:00.603Z,6.72
2022-12-27T17:17:29.700Z,6.65
2022-12-27T17:20:02.574Z,6.65
2022-12-27T17:22:35.616Z,6.70
2022-12-27T17:25:05.634Z,6.70
2022-12-27T17:27:52.437Z,6.72
2022-12-27T17:30:22.142Z,6.75
2022-12-27T17:33:05.053Z,6.77
2022-12-27T17:35:43.418Z,6.82
2022-12-27T17:38:24.924Z,6.87
2022-12-27T17:41:03.903Z,6.94
2022-12-27T17:44:01.563Z,6.95
2022-12-27T17:46:41.764Z,6.90
2022-12-27T17:49:11.373Z,6.88
2022-12-27T17:52:03.428Z,6.85
2022-12-27T17:54:50.899Z,6.89
2022-12-27T17:57:38.393Z,6.84
2022-12-27T18:00:23.101Z,6.85
2022-12-27T18:02:53.269Z,6.84
2022-12-27T18:05:27.607Z,6.83
2022-12-27T18:08:03.202Z,6.82
2022-12-27T18:10:33.860Z,6.84
2022-12-27T18:13:05.307Z,6.83
2022-12-27T18:15:36.432Z,6.83
2022-12-27T18:18:07.480Z,6.85
2022-12-27T18:20:39.930Z,6.87
2022-12-27T18:23:15.406Z,6.96
2022-12-27T18:25:55.875Z,7.05
2022-12-27T18:28:32.262Z,7.15
2022-12-27T18:31:07.287Z,7.22
2022-12-27T18:33:41.988Z,7.28
2022-12-27T18:36:14.898Z,7.27
2022-12-27T18:38:46.355Z,7.26
2022-12-27T18:41:19.057Z,7.20
2022-12-27T18:43:52.897Z,7.18
2022-12-27T18:46:28.670Z,7.22
2022-12-27T18:48:58.079Z,7.19
2022-12-27T18:51:33.027Z,7.21
2022-12-27T18:54:01.927Z,7.25
2022-12-27T18:56:32.796Z,7.14
2022-12-27T18:59:05.115Z,6.48
2022-12-27T19:01:40.212Z,5.83
2022-12-27T19:04:23.936Z,5.32
2022-12-27T19:07:05.025Z,5.09
2022-12-27T19:09:37.535Z,5.46
2022-12-27T19:12:19.095Z,5.72
2022-12-27T19:14:47.651Z,5.83
2022-12-27T19:17:21.933Z,5.94
2022-12-27T19:19:53.953Z,6.06
2022-12-27T19:22:39.949Z,6.14
2022-12-27T19:25:21.919Z,6.17
2022-12-27T19:28:05.959Z,6.15
2022-12-27T19:30:38.470Z,6.16
2022-12-27T19:33:13.567Z,6.17
2022-12-27T19:35:42.882Z,6.19
2022-12-27T19:38:19.935Z,6.22
2022-12-27T19:40:56.678Z,6.22
2022-12-27T19:43:30.333Z,6.23
2022-12-27T19:45:58.712Z,6.24
2022-12-27T19:48:26.975Z,6.26
2022-12-27T19:50:55.874Z,6.25
2022-12-27T19:53:31.029Z,6.26
2022-12-27T19:56:01.092Z,6.39
2022-12-27T19:58:32.100Z,6.48
2022-12-27T20:01:02.823Z,6.52
2022-12-27T20:03:31.384Z,6.54
2022-12-27T20:06:14.034Z,6.55
2022-12-27T20:08:50.396Z,6.58
2022-12-27T20:11:21.548Z,6.60
2022-12-27T20:13:50.562Z,6.58
2022-12-27T20:16:22.773Z,6.50
2022-12-27T20:18:51.162Z,6.36
2022-12-27T20:21:20.649Z,6.33
2022-12-27T20:23:49.382Z,6.30
2022-12-27T20:26:21.456Z,6.22
2022-12-27T20:28:51.192Z,6.14
2022-12-27T20:31:24.207Z,6.11
2022-12-27T20:33:54.107Z,6.09
2022-12-27T20:36:27.887Z,6.04
2022-12-27T20:38:57.763Z,5.99
2022-12-27T20:41:28.796Z,5.97
2022-12-27T20:43:59.781Z,5.95
2022-12-27T20:46:29.012Z,5.95
2022-12-27T20:48:57.914Z,5.90
2022-12-27T20:51:30.948Z,5.86
2022-12-27T20:54:01.209Z,5.86
2022-12-27T20:56:29.712Z,5.87
2022-12-27T20:59:00.837Z,5.89
2022-12-27T21:01:29.546Z,5.88
2022-12-27T21:03:58.176Z,5.85
2022-12-27T21:06:29.935Z,5.83
2022-12-27T21:08:58.740Z,5.83
2022-12-27T21:11:30.839Z,5.83
2022-12-27T21:14:03.707Z,5.84
2022-12-27T21:16:34.090Z,5.85
2022-12-27T21:19:06.723Z,5.87
2022-12-27T21:21:38.957Z,5.83
2022-12-27T21:24:10.093Z,5.82
2022-12-27T21:26:39.538Z,5.82
2022-12-27T21:29:09.528Z,5.79
2022-12-27T21:31:38.354Z,5.79
2022-12-27T21:34:07.220Z,5.84
2022-12-27T21:36:37.611Z,5.90
2022-12-27T21:39:06.770Z,5.94
2022-12-27T21:41:37.317Z,5.96
2022-12-27T21:44:06.054Z,6.01
2022-12-27T21:46:37.036Z,6.06
2022-12-27T21:49:07.268Z,6.04
2022-12-27T21:51:36.836Z,5.97
2022-12-27T21:54:05.941Z,5.90
2022-12-27T21:56:34.609Z,5.90
2022-12-27T21:59:06.461Z,5.92
2022-12-27T22:01:52.014Z,5.95
2022-12-27T22:04:21.733Z,5.96
2022-12-27T22:06:50.542Z,5.97
2022-12-27T22:09:18.809Z,5.96
2022-12-27T22:11:47.378Z,5.96
2022-12-27T22:14:15.625Z,5.94
2022-12-27T22:16:43.912Z,5.92
2022-12-27T22:19:13.345Z,5.91
2022-12-27T22:21:42.025Z,5.93
2022-12-27T22:24:18.552Z,5.94
2022-12-27T22:26:47.799Z,5.93
2022-12-27T22:29:16.654Z,5.87
2022-12-27T22:31:45.899Z,5.77
2022-12-27T22:34:14.154Z,5.71
2022-12-27T22:36:42.449Z,5.64
2022-12-27T22:39:10.665Z,5.58
2022-12-27T22:41:38.888Z,5.51
2022-12-27T22:44:09.863Z,5.51
2022-12-27T22:47:15.685Z,5.51
2022-12-27T22:49:35.315Z,5.53
2022-12-27T22:52:04.233Z,5.53
2022-12-27T22:55:04.366Z,5.55
2022-12-27T22:57:41.494Z,5.57
2022-12-27T23:00:13.997Z,5.63
2022-12-27T23:02:44.326Z,5.66
2022-12-27T23:05:14.879Z,5.66
2022-12-27T23:08:04.720Z,5.63
2022-12-27T23:10:34.976Z,5.58
2022-12-27T23:13:03.501Z,5.57
2022-12-27T23:15:31.858Z,5.55
2022-12-27T23:18:00.190Z,5.52
2022-12-27T23:20:28.430Z,5.46
2022-12-27T23:22:56.689Z,5.41
2022-12-27T23:25:25.021Z,5.37
2022-12-27T23:27:54.878Z,5.38
2022-12-27T23:30:23.083Z,5.36
2022-12-27T23:32:51.330Z,5.32
2022-12-27T23:35:19.558Z,5.33
2022-12-27T23:37:47.911Z,5.36
2022-12-27T23:40:16.407Z,5.36
2022-12-27T23:42:44.768Z,5.38
2022-12-27T23:45:13.017Z,5.40
2022-12-27T23:47:41.205Z,5.45
2022-12-27T23:50:11.641Z,5.49
2022-12-27T23:52:44.377Z,5.51
2022-12-27T23:55:12.625Z,5.52
2022-12-27T23:57:40.859Z,5.52
